Hua Hin, Thailand
Current Conditions -  °F | °C
As of 3:30 PM on Friday 31 Oct 2014 (Local Time) from VTBU Reporting Station
Thunderstorm Thunderstorm  
Wind Chill: 77°   Ceiling: 11000
Heat Index: 78°   Visibility: 2.5mi
Dew Point: 73°   Wind: 7mph
Humidity: 89%   Direction: 340°NNW
Pressure: 29.74"   Gusts: NA
Location:  12.57°N, 99.95°E
Report Text: VTBU 310830Z 34006KT 4000 TS BR FEW018CB SCT035 BKN110 25/23 Q1007 A2976 TS W LTG
Loading
Personal Weather Stations






























Interactive Weather Map New forecast layout! Learn more

10-Day Weather Forecast

Advertisements
Track Severe Weather on mobile